Dobbins Air Reserve Base Airport
KMGE : now visible

Airfield :











YOU CAN JOIN US ON...

 
LOGIN :

Register | Disclaimer

   EN    FR    IT 

 









Legend :    VFR   Marginal VFR   IFR   Intensive IFR   Very Intensive IFR
Visi :
Ceiling :
>= 8 km
>= 3000ft
5 to 8 km
1000 to 3000 ft
1500m to 5 km
500 to 1000 ft
800 to 1500m
200 to 500 ft
< 800m
< 200 ft
Symbols :   Thunderstorms  Fog  Heavy snow  Heavy precipitations  Wind > 20 kt






- Airport Elevation : 1068 ft


KMGE - Dobbins Air Reserve Base

CURRENT METAR :
  • 092356Z 30009KT 10SM SCT180 BKN250 20/04 A2977 RMK AO2A SLP076 T02010042 10251 20201 53001 $

EXPIRED METARs :
  • 092256Z 27015KT 10SM BKN180 BKN250 22/05 A2976 RMK AO2A SLP072 T02220047 $
  • 092156Z 29010KT 10SM BKN180 BKN250 23/04 A2976 RMK AO2A SLP071 T02320037 $

TAF TAF KMGE
Valid from the 09 at 21:00 until the 11 at 03:00 UTC


092100Z 0921/1103 31015G25KT 9999 SCT180 BKN250 QNH2975INS
BECMG 1011/1012 32015G25KT 9999 SKC QNH2995INS
BECMG 1023/1024 32009KT 9999 SKC QNH2995INS TX25/0921Z TN05/1011Z



MET'MAP, your aeronautical weather chart ! - Copyright ORBIFLY December 2007 - Disclaimer

ORBIFLY MET'MAP TEAM :

Programming & Development : Alexandra Zaïnal
Concept & original design : Baudouin d'Aumeries
Assistance for programming : Marc-Olivier Méhu
Technical & hardware support : Manuel Goepfert

Contact : metmap@orbifly.com




SOURCES & CREDITS :

   NOAA       Earth
Advisory